Time;durP1;ratioP1;P1;durP2;ratioP2;P2;SDS_P1;SDS_P2;PMS_P1;PMS_P2;Temp;Humidity;BMP_temperature;BMP_pressure;BME280_temperature;BME280_humidity;BME280_pressure;Samples;Min_cycle;Max_cycle;Signal;HPM_P1;HPM_P2
2022/06/07 00:02:03;;;;;;;;;;;17.30;99.90;;;;;;5055701;28;19905;-69
2022/06/07 00:04:28;;;;;;;;;;;17.30;99.90;;;;;;5073652;28;20422;-69
2022/06/07 00:06:54;;;;;;;;;;;17.30;99.90;;;;;;5073436;28;20003;-69
2022/06/07 00:09:19;;;;;;;;;;;17.30;99.90;;;;;;5073877;28;19930;-68
2022/06/07 00:11:45;;;;;;;;;;;17.30;99.90;;;;;;5073474;28;19991;-69
2022/06/07 00:14:10;;;;;;;;;;;17.20;99.90;;;;;;5073520;28;19973;-69
2022/06/07 00:16:36;;;;;;;;;;;17.20;99.90;;;;;;5073369;28;19991;-69
2022/06/07 00:19:01;;;;;;;;;;;17.20;99.90;;;;;;5073937;28;19904;-68
2022/06/07 00:21:29;;;;;;;;;;;17.20;99.90;;;;;;5071864;28;19905;-68
2022/06/07 00:23:59;;;;;;;;;;;17.10;99.90;;;;;;5073685;28;19941;-69
2022/06/07 00:26:25;;;;;;;;;;;17.00;99.90;;;;;;5073276;28;19947;-69
2022/06/07 00:28:50;;;;;;;;;;;16.90;99.90;;;;;;5074183;28;19950;-68
2022/06/07 00:31:16;;;;;;;;;;;16.80;99.90;;;;;;5073286;28;19963;-68
2022/06/07 00:33:41;;;;;;;;;;;16.70;99.90;;;;;;5073588;28;20015;-68
2022/06/07 00:36:08;;;;;;;;;;;16.50;99.90;;;;;;5075501;28;19975;-67
2022/06/07 00:38:34;;;;;;;;;;;16.40;99.90;;;;;;5076869;28;19987;-67
2022/06/07 00:41:00;;;;;;;;;;;16.30;99.90;;;;;;5077098;28;19919;-68
2022/06/07 00:43:26;;;;;;;;;;;16.20;99.90;;;;;;5077030;28;19905;-68
2022/06/07 00:45:52;;;;;;;;;;;16.10;99.90;;;;;;5077173;28;19904;-68
2022/06/07 00:48:17;;;;;;;;;;;16.00;99.90;;;;;;5076908;28;19911;-68
2022/06/07 00:50:49;;;;;;;;;;;16.00;99.90;;;;;;5077163;28;19904;-68
2022/06/07 00:53:21;;;;;;;;;;;16.00;99.90;;;;;;5076647;28;19923;-68
2022/06/07 00:55:46;;;;;;;;;;;16.00;99.90;;;;;;5076677;28;19904;-68
2022/06/07 00:58:12;;;;;;;;;;;16.00;99.90;;;;;;5077003;28;19904;-68
2022/06/07 01:00:37;;;;;;;;;;;16.10;99.90;;;;;;5077247;28;19904;-67
2022/06/07 01:03:03;;;;;;;;;;;16.10;99.90;;;;;;5076443;28;19911;-68
2022/06/07 01:05:29;;;;;;;;;;;16.20;99.90;;;;;;5076883;28;19918;-68
2022/06/07 01:10:44;;;;;;;;;;;16.30;99.90;;;;;;5076555;28;19912;-67
2022/06/07 01:13:11;;;;;;;;;;;16.30;99.90;;;;;;5058502;28;19998;-68
2022/06/07 01:15:37;;;;;;;;;;;16.40;99.90;;;;;;5076356;28;19939;-68
2022/06/07 01:18:02;;;;;;;;;;;16.30;99.90;;;;;;5076603;28;20389;-68
2022/06/07 01:20:28;;;;;;;;;;;16.30;99.90;;;;;;5076386;28;19904;-68
2022/06/07 01:22:55;;;;;;;;;;;16.20;99.90;;;;;;5076160;28;19929;-68
2022/06/07 01:25:21;;;;;;;;;;;16.20;99.90;;;;;;5076358;28;19905;-68
2022/06/07 01:27:46;;;;;;;;;;;16.00;99.90;;;;;;5058191;28;19954;-67
2022/06/07 01:30:12;;;;;;;;;;;15.90;99.90;;;;;;5075439;28;19947;-68
2022/06/07 01:32:38;;;;;;;;;;;15.90;99.90;;;;;;5074191;28;20311;-68
2022/06/07 01:35:04;;;;;;;;;;;15.80;99.90;;;;;;5074276;28;20244;-68
2022/06/07 01:37:29;;;;;;;;;;;15.70;99.90;;;;;;5073684;28;19905;-68
2022/06/07 01:42:39;;;;;;;;;;;15.60;99.90;;;;;;5076045;28;19970;-67
2022/06/07 01:45:05;;;;;;;;;;;15.50;99.90;;;;;;5075899;28;20348;-67
2022/06/07 01:47:31;;;;;;;;;;;15.40;99.90;;;;;;5075720;28;19908;-67
2022/06/07 01:49:57;;;;;;;;;;;15.30;99.90;;;;;;5076091;28;19904;-68
2022/06/07 01:52:24;;;;;;;;;;;15.30;99.90;;;;;;5075685;28;19953;-68
2022/06/07 01:54:51;;;;;;;;;;;15.30;99.90;;;;;;5076011;28;19947;-68
2022/06/07 01:57:17;;;;;;;;;;;15.40;99.90;;;;;;5075649;28;20320;-68
2022/06/07 01:59:43;;;;;;;;;;;15.50;99.90;;;;;;5075803;28;19904;-67
2022/06/07 02:02:09;;;;;;;;;;;15.60;99.90;;;;;;5075654;28;19905;-68
2022/06/07 02:04:35;;;;;;;;;;;15.70;99.90;;;;;;5075578;28;19904;-68
2022/06/07 02:07:00;;;;;;;;;;;15.70;99.90;;;;;;5057541;28;20272;-68
2022/06/07 02:09:26;;;;;;;;;;;15.80;99.90;;;;;;5076075;28;19912;-67
2022/06/07 02:11:52;;;;;;;;;;;15.80;99.90;;;;;;5075368;28;19930;-68
2022/06/07 02:14:17;;;;;;;;;;;15.90;99.90;;;;;;5075611;28;19966;-68
2022/06/07 02:16:43;;;;;;;;;;;15.90;99.90;;;;;;5075209;28;19905;-67
2022/06/07 02:19:08;;;;;;;;;;;15.90;99.90;;;;;;5075204;28;19904;-68
2022/06/07 02:21:36;;;;;;;;;;;16.00;99.90;;;;;;5075183;28;19935;-67
2022/06/07 02:24:01;;;;;;;;;;;16.00;99.90;;;;;;5074883;28;19908;-67
2022/06/07 02:26:29;;;;;;;;;;;16.00;99.90;;;;;;5074953;28;20379;-68
2022/06/07 02:29:05;;;;;;;;;;;16.00;99.90;;;;;;5075351;28;19936;-68
2022/06/07 02:31:32;;;;;;;;;;;16.00;99.90;;;;;;5074908;28;19930;-68
2022/06/07 02:33:59;;;;;;;;;;;16.00;99.90;;;;;;5056951;28;20279;-67
2022/06/07 02:36:25;;;;;;;;;;;15.90;99.90;;;;;;5075086;28;19911;-68
2022/06/07 02:38:51;;;;;;;;;;;15.90;99.90;;;;;;5074592;28;19909;-68
2022/06/07 02:41:18;;;;;;;;;;;15.80;99.90;;;;;;5075038;28;19987;-67
2022/06/07 02:43:44;;;;;;;;;;;15.80;99.90;;;;;;5074711;28;19904;-68
2022/06/07 02:46:10;;;;;;;;;;;15.80;99.90;;;;;;5074939;28;19911;-68
2022/06/07 02:48:35;;;;;;;;;;;15.80;99.90;;;;;;5074592;28;20271;-67
2022/06/07 02:51:01;;;;;;;;;;;15.70;99.90;;;;;;5074627;28;19995;-68
2022/06/07 02:53:26;;;;;;;;;;;15.70;99.90;;;;;;5074404;28;20309;-68
2022/06/07 02:55:52;;;;;;;;;;;15.70;99.90;;;;;;5074415;28;20001;-68
2022/06/07 02:58:17;;;;;;;;;;;15.70;99.90;;;;;;5074057;28;19954;-68
2022/06/07 03:00:43;;;;;;;;;;;15.70;99.90;;;;;;5056550;28;20299;-68
2022/06/07 03:03:10;;;;;;;;;;;15.70;99.90;;;;;;5074382;28;19904;-68
2022/06/07 03:05:35;;;;;;;;;;;15.70;99.90;;;;;;5074274;28;20275;-68
2022/06/07 03:08:01;;;;;;;;;;;15.70;99.90;;;;;;5073963;28;19999;-68
2022/06/07 03:10:26;;;;;;;;;;;15.70;99.90;;;;;;5074335;28;19905;-68
2022/06/07 03:12:53;;;;;;;;;;;15.70;99.90;;;;;;5074153;28;19955;-68
2022/06/07 03:15:19;;;;;;;;;;;15.70;99.90;;;;;;5072680;28;19990;-68
2022/06/07 03:17:45;;;;;;;;;;;15.60;99.90;;;;;;5073989;28;20313;-68
2022/06/07 03:20:11;;;;;;;;;;;15.60;99.90;;;;;;5074161;28;19931;-68
2022/06/07 03:22:37;;;;;;;;;;;15.50;99.90;;;;;;5055833;28;20367;-68
2022/06/07 03:25:05;;;;;;;;;;;15.50;99.90;;;;;;5073990;28;19911;-68
2022/06/07 03:27:35;;;;;;;;;;;15.50;99.90;;;;;;5074090;28;19954;-68
2022/06/07 03:30:02;;;;;;;;;;;15.50;99.90;;;;;;5074118;28;19909;-68
2022/06/07 03:32:27;;;;;;;;;;;15.40;99.90;;;;;;5073518;28;19916;-68
2022/06/07 03:34:53;;;;;;;;;;;15.40;99.90;;;;;;5073441;28;20295;-68
2022/06/07 03:37:18;;;;;;;;;;;15.30;99.90;;;;;;5072730;28;19998;-68
2022/06/07 03:39:44;;;;;;;;;;;15.30;99.90;;;;;;5073000;28;19912;-68
2022/06/07 03:42:12;;;;;;;;;;;15.30;99.90;;;;;;5073058;28;19911;-68
2022/06/07 03:44:38;;;;;;;;;;;15.30;99.90;;;;;;5073075;28;19910;-68
2022/06/07 03:47:03;;;;;;;;;;;15.30;99.90;;;;;;5073014;28;19904;-68
2022/06/07 03:49:29;;;;;;;;;;;15.30;99.90;;;;;;5073552;28;19944;-68
2022/06/07 03:51:54;;;;;;;;;;;15.30;99.90;;;;;;5072887;28;19904;-68
2022/06/07 03:54:20;;;;;;;;;;;15.20;99.90;;;;;;5072731;28;20073;-68
2022/06/07 03:56:45;;;;;;;;;;;15.20;99.90;;;;;;5072763;28;19911;-68
2022/06/07 03:59:11;;;;;;;;;;;15.20;99.90;;;;;;5071547;28;19908;-68
2022/06/07 04:01:37;;;;;;;;;;;15.10;99.90;;;;;;5072698;28;20322;-68
2022/06/07 04:04:05;;;;;;;;;;;15.00;99.90;;;;;;5073009;28;20366;-68
2022/06/07 04:06:32;;;;;;;;;;;15.00;99.90;;;;;;5072660;28;19904;-67
2022/06/07 04:08:58;;;;;;;;;;;14.90;99.90;;;;;;5072474;28;19965;-68
2022/06/07 04:11:24;;;;;;;;;;;14.80;99.90;;;;;;5074997;28;19947;-68
2022/06/07 04:13:51;;;;;;;;;;;14.70;99.90;;;;;;5076244;28;19908;-68
2022/06/07 04:16:17;;;;;;;;;;;14.70;99.90;;;;;;5076589;28;19904;-68
2022/06/07 04:18:43;;;;;;;;;;;14.60;99.90;;;;;;5058214;28;19904;-68
2022/06/07 04:21:09;;;;;;;;;;;14.60;99.90;;;;;;5076188;28;19958;-67
2022/06/07 04:23:35;;;;;;;;;;;14.60;99.90;;;;;;5075946;28;19904;-67
2022/06/07 04:26:08;;;;;;;;;;;14.60;99.90;;;;;;5075921;28;19904;-67
2022/06/07 04:28:33;;;;;;;;;;;14.70;99.90;;;;;;5075676;28;19908;-68
2022/06/07 04:30:59;;;;;;;;;;;14.80;99.90;;;;;;5076007;28;19904;-67
2022/06/07 04:33:25;;;;;;;;;;;14.80;99.90;;;;;;5034274;28;1225288;-67
2022/06/07 04:35:50;;;;;;;;;;;14.80;99.90;;;;;;5077138;28;20368;-67
2022/06/07 04:38:16;;;;;;;;;;;14.80;99.90;;;;;;5076907;28;20253;-67
2022/06/07 04:40:42;;;;;;;;;;;14.80;99.90;;;;;;5077165;28;19911;-67
2022/06/07 04:43:11;;;;;;;;;;;14.80;99.90;;;;;;5077076;28;19905;-67
2022/06/07 04:45:40;;;;;;;;;;;14.90;99.90;;;;;;5059003;28;19904;-68
2022/06/07 04:48:06;;;;;;;;;;;14.80;99.90;;;;;;5077102;28;19904;-68
2022/06/07 04:50:32;;;;;;;;;;;14.70;99.90;;;;;;5077240;28;20284;-67
2022/06/07 04:52:58;;;;;;;;;;;14.70;99.90;;;;;;5076796;28;19915;-68
2022/06/07 04:55:23;;;;;;;;;;;14.60;99.90;;;;;;5059108;28;19904;-67
2022/06/07 04:57:49;;;;;;;;;;;14.60;99.90;;;;;;5076709;28;20007;-68
2022/06/07 05:00:15;;;;;;;;;;;14.50;99.90;;;;;;5076766;28;19911;-67
2022/06/07 05:02:44;;;;;;;;;;;14.50;99.90;;;;;;5076687;28;20433;-67
2022/06/07 05:05:11;;;;;;;;;;;14.60;99.90;;;;;;5076685;28;19931;-67
2022/06/07 05:07:37;;;;;;;;;;;14.60;99.90;;;;;;5076349;28;19995;-68
2022/06/07 05:10:04;;;;;;;;;;;14.60;99.90;;;;;;5076836;28;19904;-67
2022/06/07 05:12:32;;;;;;;;;;;14.50;99.90;;;;;;5076358;28;20374;-67
2022/06/07 05:14:58;;;;;;;;;;;14.60;99.90;;;;;;5076809;28;19911;-67
2022/06/07 05:17:24;;;;;;;;;;;14.60;99.90;;;;;;5076343;28;19998;-67
2022/06/07 05:19:49;;;;;;;;;;;14.60;99.90;;;;;;5076419;28;19944;-67
2022/06/07 05:22:15;;;;;;;;;;;14.60;99.90;;;;;;5057778;28;20349;-68
2022/06/07 05:24:40;;;;;;;;;;;14.60;99.90;;;;;;5076285;28;20436;-67
2022/06/07 05:27:07;;;;;;;;;;;14.70;99.90;;;;;;5076932;28;19961;-67
2022/06/07 05:29:53;;;;;;;;;;;14.70;99.90;;;;;;5076584;28;19969;-67
2022/06/07 05:32:18;;;;;;;;;;;14.80;99.90;;;;;;5057600;28;19916;-67
2022/06/07 05:34:44;;;;;;;;;;;14.80;99.90;;;;;;5076146;28;20317;-68
2022/06/07 05:37:13;;;;;;;;;;;14.90;99.90;;;;;;5076057;28;20367;-67
2022/06/07 05:39:38;;;;;;;;;;;14.90;99.90;;;;;;5075915;28;19992;-68
2022/06/07 05:42:04;;;;;;;;;;;14.90;99.90;;;;;;5076039;28;20374;-67
2022/06/07 05:44:30;;;;;;;;;;;14.90;99.90;;;;;;5076571;28;19904;-67
2022/06/07 05:46:55;;;;;;;;;;;14.90;99.90;;;;;;5075886;28;19995;-68
2022/06/07 05:49:21;;;;;;;;;;;15.00;99.90;;;;;;5075901;28;19915;-67
2022/06/07 05:51:47;;;;;;;;;;;14.90;99.90;;;;;;5075855;28;20050;-68
2022/06/07 05:54:13;;;;;;;;;;;15.00;99.90;;;;;;5057527;28;19908;-68
2022/06/07 05:56:39;;;;;;;;;;;15.00;99.90;;;;;;5057683;28;19943;-67
2022/06/07 05:59:07;;;;;;;;;;;15.00;99.90;;;;;;5075732;28;19954;-67
2022/06/07 06:01:33;;;;;;;;;;;15.00;99.90;;;;;;5057683;28;19905;-68
2022/06/07 06:03:59;;;;;;;;;;;15.10;99.90;;;;;;5075514;28;19905;-67
2022/06/07 06:06:25;;;;;;;;;;;15.10;99.90;;;;;;5075472;28;19911;-68
2022/06/07 06:11:35;;;;;;;;;;;15.10;99.90;;;;;;5075442;28;19911;-68
2022/06/07 06:14:00;;;;;;;;;;;15.10;99.90;;;;;;5074871;28;19908;-68
2022/06/07 06:16:26;;;;;;;;;;;15.10;99.90;;;;;;5074247;28;19918;-67
2022/06/07 06:18:53;;;;;;;;;;;15.00;99.90;;;;;;5075523;28;19978;-68
2022/06/07 06:21:20;;;;;;;;;;;15.00;99.90;;;;;;5075261;28;20322;-68
2022/06/07 06:23:45;;;;;;;;;;;15.00;99.90;;;;;;5074906;28;19904;-68
2022/06/07 06:26:13;;;;;;;;;;;15.00;99.90;;;;;;5074992;28;20287;-68
2022/06/07 06:28:39;;;;;;;;;;;15.00;99.90;;;;;;5075534;28;19905;-69
2022/06/07 06:31:06;;;;;;;;;;;15.00;99.90;;;;;;5075240;28;19994;-69
2022/06/07 06:33:39;;;;;;;;;;;15.00;99.90;;;;;;5074033;28;19920;-69
2022/06/07 06:36:06;;;;;;;;;;;15.00;99.90;;;;;;5075022;28;19904;-69
2022/06/07 06:38:32;;;;;;;;;;;14.90;99.90;;;;;;5074967;28;20322;-69
2022/06/07 06:40:59;;;;;;;;;;;14.90;99.90;;;;;;5074825;28;19904;-69
2022/06/07 06:43:24;;;;;;;;;;;14.90;99.90;;;;;;5074761;28;19908;-69
2022/06/07 06:45:50;;;;;;;;;;;14.80;99.90;;;;;;5056841;28;19910;-69
2022/06/07 06:48:15;;;;;;;;;;;14.90;99.90;;;;;;5056641;28;19946;-69
2022/06/07 06:50:41;;;;;;;;;;;14.80;99.90;;;;;;5074611;28;19951;-69
2022/06/07 06:53:07;;;;;;;;;;;14.80;99.90;;;;;;5074282;28;19908;-69
2022/06/07 06:55:33;;;;;;;;;;;14.80;99.90;;;;;;5074764;28;19940;-68
2022/06/07 06:57:59;;;;;;;;;;;14.70;99.90;;;;;;5074335;28;19987;-69
2022/06/07 07:00:25;;;;;;;;;;;14.70;99.90;;;;;;5074429;28;19904;-69
2022/06/07 07:02:53;;;;;;;;;;;14.70;99.90;;;;;;5074389;28;19908;-69
2022/06/07 07:05:18;;;;;;;;;;;14.70;99.90;;;;;;5074336;28;19905;-69
2022/06/07 07:07:46;;;;;;;;;;;14.80;99.90;;;;;;5056110;28;19911;-69
2022/06/07 07:10:11;;;;;;;;;;;14.80;99.90;;;;;;5074297;28;19912;-69
2022/06/07 07:12:37;;;;;;;;;;;14.80;99.90;;;;;;5074168;28;19909;-70
2022/06/07 07:15:04;;;;;;;;;;;14.90;99.90;;;;;;5074549;28;20275;-69
2022/06/07 07:17:30;;;;;;;;;;;14.90;99.90;;;;;;5074424;28;19905;-69
2022/06/07 07:19:56;;;;;;;;;;;15.00;99.90;;;;;;5074145;28;19931;-69
2022/06/07 07:22:22;;;;;;;;;;;15.00;99.90;;;;;;5074091;28;19905;-69
2022/06/07 07:24:48;;;;;;;;;;;15.10;99.90;;;;;;5073914;28;19905;-69
2022/06/07 07:27:14;;;;;;;;;;;15.20;99.90;;;;;;5074272;28;19908;-69
2022/06/07 07:29:40;;;;;;;;;;;15.10;99.90;;;;;;5073982;28;19904;-69
2022/06/07 07:32:06;;;;;;;;;;;15.00;99.90;;;;;;5055675;28;19919;-70
2022/06/07 07:34:31;;;;;;;;;;;14.90;99.90;;;;;;5054601;28;19943;-69
2022/06/07 07:36:59;;;;;;;;;;;15.00;99.90;;;;;;5073783;28;19911;-69
2022/06/07 07:39:25;;;;;;;;;;;15.00;99.90;;;;;;5055554;28;19904;-69
2022/06/07 07:41:51;;;;;;;;;;;15.10;99.90;;;;;;5074016;28;19954;-69
2022/06/07 07:44:17;;;;;;;;;;;15.10;99.90;;;;;;5074088;28;19969;-68
2022/06/07 07:46:44;;;;;;;;;;;15.20;99.90;;;;;;5073697;28;19904;-69
2022/06/07 07:49:11;;;;;;;;;;;15.30;99.90;;;;;;5072634;28;20375;-69
2022/06/07 07:51:38;;;;;;;;;;;15.30;99.90;;;;;;5074110;28;19904;-70
2022/06/07 07:54:05;;;;;;;;;;;15.40;99.90;;;;;;5055390;28;19931;-69
2022/06/07 07:56:31;;;;;;;;;;;15.50;99.90;;;;;;5073643;28;19909;-69
2022/06/07 07:58:57;;;;;;;;;;;15.60;99.90;;;;;;5073587;28;19904;-69
2022/06/07 08:01:24;;;;;;;;;;;15.70;99.90;;;;;;5073673;28;19935;-69
2022/06/07 08:03:50;;;;;;;;;;;15.80;99.90;;;;;;5055753;28;19904;-69
2022/06/07 08:06:17;;;;;;;;;;;15.80;99.90;;;;;;5073359;28;20264;-69
2022/06/07 08:08:43;;;;;;;;;;;15.80;99.90;;;;;;5073499;28;19904;-69
2022/06/07 08:11:09;;;;;;;;;;;15.80;99.90;;;;;;5073423;28;20280;-69
2022/06/07 08:13:36;;;;;;;;;;;15.80;99.90;;;;;;5074031;28;19908;-69
2022/06/07 08:16:02;;;;;;;;;;;15.80;99.90;;;;;;5073682;28;19905;-69
2022/06/07 08:18:28;;;;;;;;;;;15.80;99.90;;;;;;5073450;28;19905;-68
2022/06/07 08:20:58;;;;;;;;;;;15.80;99.90;;;;;;5073544;28;19904;-69
2022/06/07 08:23:24;;;;;;;;;;;15.80;99.90;;;;;;5073291;28;20321;-69
2022/06/07 08:25:50;;;;;;;;;;;15.90;99.90;;;;;;5073416;28;19943;-69
2022/06/07 08:28:15;;;;;;;;;;;15.90;99.90;;;;;;5055300;28;19936;-69
2022/06/07 08:30:47;;;;;;;;;;;16.00;99.90;;;;;;5073339;28;19987;-69
2022/06/07 08:38:42;;;;;;;;;;;16.10;99.90;;;;;;5073217;28;20429;-69
2022/06/07 08:41:18;;;;;;;;;;;16.20;99.90;;;;;;5055066;28;19904;-69
2022/06/07 08:43:44;;;;;;;;;;;16.30;99.90;;;;;;5073740;28;19999;-69
2022/06/07 08:46:12;;;;;;;;;;;16.40;99.90;;;;;;5054910;28;19947;-69
2022/06/07 08:48:40;;;;;;;;;;;16.50;99.90;;;;;;5071992;28;19905;-69
2022/06/07 08:51:14;;;;;;;;;;;16.60;99.90;;;;;;5071834;28;20344;-69
2022/06/07 08:53:42;;;;;;;;;;;16.70;99.90;;;;;;5072607;28;19909;-69
2022/06/07 08:56:16;;;;;;;;;;;16.70;99.90;;;;;;5071979;28;19911;-69
2022/06/07 08:58:43;;;;;;;;;;;16.70;99.90;;;;;;5076617;28;19908;-69
2022/06/07 09:01:21;;;;;;;;;;;16.80;99.90;;;;;;5075136;28;19936;-69
2022/06/07 09:03:59;;;;;;;;;;;16.80;99.90;;;;;;5070794;28;20379;-68
2022/06/07 09:06:29;;;;;;;;;;;16.80;99.90;;;;;;5075450;28;19904;-69
2022/06/07 09:08:57;;;;;;;;;;;16.90;99.90;;;;;;5076175;28;19953;-69
2022/06/07 09:12:10;;;;;;;;;;;16.90;99.90;;;;;;5058785;28;20268;-69
2022/06/07 09:14:36;;;;;;;;;;;17.00;99.90;;;;;;5013249;28;19910;-69
2022/06/07 09:17:12;;;;;;;;;;;16.90;99.90;;;;;;5013730;28;19988;-69
2022/06/07 09:19:38;;;;;;;;;;;16.90;99.90;;;;;;5043021;28;20166;-69
2022/06/07 09:22:08;;;;;;;;;;;16.90;99.90;;;;;;5075494;28;19965;-69
2022/06/07 09:24:41;;;;;;;;;;;16.80;99.90;;;;;;5073206;28;19924;-68
2022/06/07 09:27:17;;;;;;;;;;;16.80;99.90;;;;;;5073654;28;19912;-69
2022/06/07 09:29:49;;;;;;;;;;;16.80;99.90;;;;;;5075198;28;19939;-69
2022/06/07 09:32:16;;;;;;;;;;;16.80;99.90;;;;;;5073863;28;20317;-69
2022/06/07 09:34:48;;;;;;;;;;;16.80;99.90;;;;;;5073851;28;19912;-69
2022/06/07 09:37:15;;;;;;;;;;;16.80;99.90;;;;;;5073575;28;19904;-68
2022/06/07 09:39:42;;;;;;;;;;;16.80;99.90;;;;;;5073849;28;20390;-68
2022/06/07 09:42:20;;;;;;;;;;;16.80;99.90;;;;;;5067614;28;19904;-69
2022/06/07 09:44:54;;;;;;;;;;;16.80;99.90;;;;;;5074759;28;19904;-69
2022/06/07 09:47:21;;;;;;;;;;;16.70;99.90;;;;;;5075831;28;19904;-69
2022/06/07 09:49:48;;;;;;;;;;;16.60;99.90;;;;;;5057861;28;19904;-69
2022/06/07 09:52:20;;;;;;;;;;;16.60;99.90;;;;;;5076000;28;19912;-69
2022/06/07 09:54:47;;;;;;;;;;;16.60;99.90;;;;;;5075497;28;19912;-69
2022/06/07 09:57:17;;;;;;;;;;;16.50;99.90;;;;;;5075647;28;19904;-69
2022/06/07 09:59:49;;;;;;;;;;;16.50;99.90;;;;;;5075656;28;19943;-68
2022/06/07 10:02:25;;;;;;;;;;;16.40;99.90;;;;;;5075635;28;19905;-69
2022/06/07 10:05:05;;;;;;;;;;;16.40;99.90;;;;;;5076444;28;19904;-68
2022/06/07 10:07:51;;;;;;;;;;;16.30;99.90;;;;;;5074799;28;19912;-69
2022/06/07 10:10:25;;;;;;;;;;;16.40;99.90;;;;;;5044009;28;19939;-68
2022/06/07 10:12:56;;;;;;;;;;;16.40;99.90;;;;;;5075644;28;19914;-69
2022/06/07 10:15:29;;;;;;;;;;;16.30;99.90;;;;;;5075396;28;19932;-69
2022/06/07 10:17:58;;;;;;;;;;;16.30;99.90;;;;;;5075300;28;19905;-69
2022/06/07 10:20:33;;;;;;;;;;;16.20;99.90;;;;;;5075553;28;20302;-69
2022/06/07 10:23:17;;;;;;;;;;;16.20;99.90;;;;;;5075236;28;19904;-69
2022/06/07 10:25:54;;;;;;;;;;;16.20;99.90;;;;;;5075380;28;19955;-70
2022/06/07 10:28:35;;;;;;;;;;;16.10;99.90;;;;;;5075149;28;20403;-70
2022/06/07 10:31:23;;;;;;;;;;;16.20;99.90;;;;;;5075063;28;19912;-70
2022/06/07 10:33:52;;;;;;;;;;;16.20;99.90;;;;;;5066680;28;19919;-70
2022/06/07 10:36:29;;;;;;;;;;;16.20;99.90;;;;;;5074863;28;19905;-70
2022/06/07 10:39:14;;;;;;;;;;;16.30;99.90;;;;;;5074922;28;20403;-69
2022/06/07 10:42:00;;;;;;;;;;;16.30;99.90;;;;;;5075178;28;19905;-69
2022/06/07 10:44:29;;;;;;;;;;;16.40;99.90;;;;;;5074236;28;20002;-69
2022/06/07 10:46:55;;;;;;;;;;;16.40;99.90;;;;;;5075227;28;19996;-69
2022/06/07 10:49:26;;;;;;;;;;;16.50;99.90;;;;;;5074987;28;19905;-69
2022/06/07 10:54:40;;;;;;;;;;;16.60;99.90;;;;;;5074794;28;19916;-68
2022/06/07 10:57:09;;;;;;;;;;;16.60;99.90;;;;;;5075258;28;19904;-69
2022/06/07 10:59:37;;;;;;;;;;;16.50;99.90;;;;;;5074824;28;20302;-69
2022/06/07 11:02:08;;;;;;;;;;;16.60;99.90;;;;;;5074438;28;20279;-69
2022/06/07 11:11:08;;;;;;;;;;;16.50;99.90;;;;;;4974021;28;20381;-70
2022/06/07 11:13:37;;;;;;;;;;;16.50;99.90;;;;;;5040222;28;19915;-69
2022/06/07 11:16:08;;;;;;;;;;;16.50;99.90;;;;;;5074216;28;19904;-69
2022/06/07 11:18:34;;;;;;;;;;;16.50;99.90;;;;;;5074108;28;19904;-69
2022/06/07 11:21:02;;;;;;;;;;;16.40;99.90;;;;;;5073906;28;19927;-69
2022/06/07 11:23:33;;;;;;;;;;;16.40;99.90;;;;;;5073877;28;19945;-68
2022/06/07 11:26:06;;;;;;;;;;;16.20;99.90;;;;;;5074225;28;19904;-69
2022/06/07 11:28:34;;;;;;;;;;;16.20;99.90;;;;;;5074070;28;19915;-69
2022/06/07 11:31:22;;;;;;;;;;;16.10;99.90;;;;;;5074018;28;19956;-69
2022/06/07 11:33:51;;;;;;;;;;;16.00;99.90;;;;;;5073761;28;19952;-69
2022/06/07 11:36:19;;;;;;;;;;;16.00;99.90;;;;;;5073878;28;19905;-69
2022/06/07 11:38:57;;;;;;;;;;;16.00;99.90;;;;;;5073723;28;20326;-69
2022/06/07 11:41:37;;;;;;;;;;;15.90;99.90;;;;;;5073982;28;19916;-70
2022/06/07 11:44:04;;;;;;;;;;;15.90;99.90;;;;;;5073865;28;19905;-69
2022/06/07 11:46:33;;;;;;;;;;;15.90;99.90;;;;;;5073871;28;19904;-69
2022/06/07 11:49:19;;;;;;;;;;;15.90;99.90;;;;;;5056113;28;20314;-69
2022/06/07 11:52:02;;;;;;;;;;;15.90;99.90;;;;;;5073628;28;20010;-69
2022/06/07 11:54:28;;;;;;;;;;;16.00;99.90;;;;;;5073697;28;19947;-69
2022/06/07 11:56:56;;;;;;;;;;;16.00;99.90;;;;;;5073681;28;19950;-69
2022/06/07 11:59:21;;;;;;;;;;;16.00;99.90;;;;;;5074012;28;20380;-69
2022/06/07 12:02:07;;;;;;;;;;;16.10;99.90;;;;;;5073663;28;19904;-70
2022/06/07 12:04:36;;;;;;;;;;;16.10;99.90;;;;;;5073629;28;20379;-69
2022/06/07 12:07:13;;;;;;;;;;;16.10;99.90;;;;;;5073592;28;19908;-69
2022/06/07 12:09:45;;;;;;;;;;;16.10;99.90;;;;;;5073430;28;19905;-69
2022/06/07 12:12:18;;;;;;;;;;;16.10;99.90;;;;;;5073763;28;19935;-69
2022/06/07 12:14:45;;;;;;;;;;;16.10;99.90;;;;;;5072558;28;19904;-68
2022/06/07 12:17:25;;;;;;;;;;;16.20;99.90;;;;;;5073074;28;19911;-69
2022/06/07 12:19:50;;;;;;;;;;;16.20;99.90;;;;;;5072028;28;20326;-69
2022/06/07 12:22:18;;;;;;;;;;;16.30;99.90;;;;;;5055573;28;19908;-69
2022/06/07 12:24:54;;;;;;;;;;;16.30;99.90;;;;;;5073368;28;19904;-70
2022/06/07 12:27:31;;;;;;;;;;;16.30;99.90;;;;;;5073456;28;19940;-69
2022/06/07 12:30:02;;;;;;;;;;;16.40;99.90;;;;;;5073913;28;19958;-70
2022/06/07 12:32:35;;;;;;;;;;;16.40;99.90;;;;;;5076015;28;20351;-69
2022/06/07 12:35:13;;;;;;;;;;;16.40;99.90;;;;;;5059238;28;20391;-69
2022/06/07 12:37:38;;;;;;;;;;;16.40;99.90;;;;;;5077200;28;19908;-69
2022/06/07 12:40:20;;;;;;;;;;;16.40;99.90;;;;;;5077181;28;19953;-69
2022/06/07 12:42:47;;;;;;;;;;;16.50;99.90;;;;;;5076036;28;19904;-69
2022/06/07 12:45:18;;;;;;;;;;;16.50;99.90;;;;;;5076638;28;19991;-69
2022/06/07 12:47:46;;;;;;;;;;;16.50;99.90;;;;;;5058848;28;19954;-70
2022/06/07 12:50:24;;;;;;;;;;;16.50;99.90;;;;;;5075807;28;19912;-70
2022/06/07 12:52:50;;;;;;;;;;;16.40;99.90;;;;;;5071569;28;19917;-70
2022/06/07 12:55:19;;;;;;;;;;;16.40;99.90;;;;;;5076557;28;19904;-69
2022/06/07 12:57:50;;;;;;;;;;;16.40;99.90;;;;;;5059061;28;19911;-70
2022/06/07 13:00:18;;;;;;;;;;;16.40;99.90;;;;;;5076655;28;20357;-69
2022/06/07 13:02:48;;;;;;;;;;;16.50;99.90;;;;;;5076554;28;19911;-70
2022/06/07 13:05:18;;;;;;;;;;;16.40;99.90;;;;;;5076381;28;19904;-70
2022/06/07 13:07:45;;;;;;;;;;;16.40;99.90;;;;;;5076612;28;20347;-70
2022/06/07 13:10:22;;;;;;;;;;;16.40;99.90;;;;;;5076215;28;19930;-70
2022/06/07 13:12:48;;;;;;;;;;;16.40;99.90;;;;;;5076442;28;19908;-69
2022/06/07 13:15:17;;;;;;;;;;;16.40;99.90;;;;;;5076515;28;20485;-69
2022/06/07 13:17:52;;;;;;;;;;;16.40;99.90;;;;;;5076236;28;19939;-70
2022/06/07 13:20:30;;;;;;;;;;;16.30;99.90;;;;;;5075999;28;19912;-70
2022/06/07 13:22:57;;;;;;;;;;;16.30;99.90;;;;;;5076235;28;19905;-70
2022/06/07 13:25:24;;;;;;;;;;;16.30;99.90;;;;;;5075885;28;19911;-70
2022/06/07 13:28:10;;;;;;;;;;;16.40;99.90;;;;;;5076026;28;19904;-69
2022/06/07 13:30:38;;;;;;;;;;;16.40;99.90;;;;;;5065341;28;20322;-69
2022/06/07 13:33:10;;;;;;;;;;;16.40;99.90;;;;;;5075809;28;20432;-70
2022/06/07 13:35:38;;;;;;;;;;;16.50;99.90;;;;;;5075977;28;20023;-70
2022/06/07 13:38:16;;;;;;;;;;;16.50;99.90;;;;;;5076033;28;20326;-69
2022/06/07 13:40:41;;;;;;;;;;;16.60;99.90;;;;;;5057357;28;19909;-69
2022/06/07 13:43:18;;;;;;;;;;;16.60;99.90;;;;;;5075454;28;19904;-69
2022/06/07 13:45:49;;;;;;;;;;;16.70;99.90;;;;;;5075617;28;20384;-70
2022/06/07 13:48:22;;;;;;;;;;;16.70;99.90;;;;;;5075811;28;19911;-70
2022/06/07 13:53:44;;;;;;;;;;;16.80;99.90;;;;;;5075593;28;19997;-69
2022/06/07 13:56:14;;;;;;;;;;;16.80;99.90;;;;;;5057640;28;20276;-69
2022/06/07 13:58:41;;;;;;;;;;;16.70;99.90;;;;;;5075568;28;19911;-70
2022/06/07 14:01:09;;;;;;;;;;;16.80;99.90;;;;;;5057551;28;19904;-70
2022/06/07 14:03:37;;;;;;;;;;;16.80;99.90;;;;;;5075358;28;19943;-69
2022/06/07 14:06:05;;;;;;;;;;;16.80;99.90;;;;;;5075420;28;19927;-69
2022/06/07 14:08:30;;;;;;;;;;;16.70;99.90;;;;;;5075769;28;19905;-70
2022/06/07 14:10:56;;;;;;;;;;;16.80;99.90;;;;;;5074985;28;20273;-69
2022/06/07 14:13:22;;;;;;;;;;;16.80;99.90;;;;;;5075428;28;19912;-70
2022/06/07 14:15:49;;;;;;;;;;;16.80;99.90;;;;;;5057266;28;19911;-70
2022/06/07 14:18:16;;;;;;;;;;;16.80;99.90;;;;;;5075211;28;19951;-70
2022/06/07 14:20:42;;;;;;;;;;;16.80;99.90;;;;;;5074908;28;19908;-69
2022/06/07 14:23:14;;;;;;;;;;;16.80;99.90;;;;;;5075196;28;19912;-69
2022/06/07 14:25:40;;;;;;;;;;;16.80;99.90;;;;;;5074624;28;20357;-70
2022/06/07 14:28:11;;;;;;;;;;;16.90;99.90;;;;;;5075012;28;19954;-70
2022/06/07 14:30:36;;;;;;;;;;;16.90;99.90;;;;;;5056989;28;20002;-70
2022/06/07 14:33:03;;;;;;;;;;;17.00;99.90;;;;;;5074615;28;20042;-70
2022/06/07 14:35:30;;;;;;;;;;;17.00;99.90;;;;;;5074502;28;19904;-69
2022/06/07 14:37:58;;;;;;;;;;;17.10;99.90;;;;;;5074794;28;19955;-70
2022/06/07 14:40:26;;;;;;;;;;;17.10;99.90;;;;;;5074450;28;20031;-70
2022/06/07 14:42:53;;;;;;;;;;;17.20;99.90;;;;;;5074551;28;19915;-70
2022/06/07 14:45:20;;;;;;;;;;;17.20;99.90;;;;;;5074691;28;19957;-70
2022/06/07 14:47:47;;;;;;;;;;;17.20;99.90;;;;;;5074646;28;20319;-69
2022/06/07 14:50:17;;;;;;;;;;;17.30;99.90;;;;;;5074746;28;19935;-70